createdAt,value
2016-05-21T00:00:33.092Z,14.3
2016-05-21T00:01:33.125Z,14.26
2016-05-21T00:02:33.175Z,14.18
2016-05-21T00:03:33.194Z,14.28
2016-05-21T00:04:33.227Z,14.3
2016-05-21T00:05:33.277Z,14.33
2016-05-21T00:06:33.294Z,14.22
2016-05-21T00:07:33.345Z,14.26
2016-05-21T00:08:33.378Z,14.18
2016-05-21T00:09:33.413Z,14.18
2016-05-21T00:10:33.446Z,14.22
2016-05-21T00:11:33.930Z,14.25
2016-05-21T00:12:33.542Z,14.25
2016-05-21T00:13:33.592Z,14.18
2016-05-21T00:14:33.641Z,14.25
2016-05-21T00:15:33.691Z,14.3
2016-05-21T00:16:33.733Z,14.2
2016-05-21T00:17:33.773Z,14.22
2016-05-21T00:18:33.657Z,14.23
2016-05-21T00:19:33.696Z,14.23
2016-05-21T00:20:33.891Z,14.25
2016-05-21T00:21:33.929Z,14.23
2016-05-21T00:22:33.982Z,14.17
2016-05-21T00:23:34.017Z,14.17
2016-05-21T00:24:33.898Z,14.14
2016-05-21T00:25:34.089Z,14.2
2016-05-21T00:26:34.531Z,14.14
2016-05-21T00:27:34.004Z,14.2
2016-05-21T00:28:34.194Z,14.14
2016-05-21T00:29:34.228Z,14.18
2016-05-21T00:30:34.106Z,14.28
2016-05-21T00:31:34.298Z,14.35
2016-05-21T00:32:34.332Z,14.33
2016-05-21T00:33:34.225Z,14.36
2016-05-21T00:34:34.228Z,14.36
2016-05-21T00:35:34.434Z,14.37
2016-05-21T00:36:34.311Z,14.43
2016-05-21T00:37:34.501Z,14.25
2016-05-21T00:38:34.551Z,14.28
2016-05-21T00:39:34.584Z,14.29
2016-05-21T00:40:34.462Z,14.17
2016-05-21T00:41:34.653Z,14.2
2016-05-21T00:42:34.671Z,14.2
2016-05-21T00:43:34.720Z,14.18
2016-05-21T00:44:34.738Z,14.26
2016-05-21T00:45:34.789Z,14.25
2016-05-21T00:46:34.823Z,14.23
2016-05-21T00:47:34.856Z,14.22
2016-05-21T00:48:34.891Z,14.23
2016-05-21T00:49:34.596Z,14.15
2016-05-21T00:50:34.802Z,14.04
2016-05-21T00:51:34.992Z,14.1
2016-05-21T00:52:35.026Z,14.12
2016-05-21T00:53:34.904Z,14.08
2016-05-21T00:54:35.109Z,14.03
2016-05-21T00:55:35.127Z,13.99
2016-05-21T00:56:35.177Z,13.89
2016-05-21T00:57:35.211Z,13.97
2016-05-21T00:58:35.229Z,13.96
2016-05-21T00:59:35.107Z,13.9
2016-05-21T01:00:35.298Z,13.9
2016-05-21T01:01:35.348Z,13.9
2016-05-21T01:02:35.381Z,13.92
2016-05-21T01:03:35.415Z,13.89
2016-05-21T01:04:35.293Z,13.95
2016-05-21T01:05:35.311Z,13.92
2016-05-21T01:06:35.517Z,13.92
2016-05-21T01:07:35.395Z,13.83
2016-05-21T01:08:35.428Z,13.81
2016-05-21T01:09:35.478Z,13.74
2016-05-21T01:10:35.652Z,13.78
2016-05-21T01:11:35.702Z,13.74
2016-05-21T01:12:35.564Z,13.77
2016-05-21T01:13:35.754Z,13.77
2016-05-21T01:14:35.820Z,13.72
2016-05-21T01:15:35.838Z,13.7
2016-05-21T01:16:35.856Z,13.71
2016-05-21T01:17:35.891Z,13.63
2016-05-21T01:18:35.924Z,13.59
2016-05-21T01:19:35.958Z,13.59
2016-05-21T01:20:35.992Z,13.52
2016-05-21T01:21:36.026Z,13.44
2016-05-21T01:22:36.060Z,13.39
2016-05-21T01:23:36.094Z,13.37
2016-05-21T01:24:36.143Z,13.31
2016-05-21T01:25:36.005Z,13.46
2016-05-21T01:26:36.507Z,13.52
2016-05-21T01:27:36.229Z,13.41
2016-05-21T01:28:36.123Z,13.41
2016-05-21T01:29:36.313Z,13.31
2016-05-21T01:30:36.332Z,13.33
2016-05-21T01:31:36.224Z,13.27
2016-05-21T01:32:36.415Z,13.25
2016-05-21T01:33:36.449Z,13.27
2016-05-21T01:34:36.467Z,13.27
2016-05-21T01:35:36.517Z,13.3
2016-05-21T01:36:36.395Z,13.3
2016-05-21T01:37:36.584Z,13.27
2016-05-21T01:38:36.462Z,13.31
2016-05-21T01:39:36.496Z,13.37
2016-05-21T01:40:36.686Z,13.37
2016-05-21T01:41:36.798Z,13.37
2016-05-21T01:42:36.754Z,13.3
2016-05-21T01:43:36.789Z,13.39
2016-05-21T01:44:36.823Z,13.3
2016-05-21T01:45:36.700Z,13.28
2016-05-21T01:46:36.734Z,13.3
2016-05-21T01:47:36.924Z,13.28
2016-05-21T01:48:36.958Z,13.39
2016-05-21T01:49:36.836Z,13.15
2016-05-21T01:50:37.025Z,13.28
2016-05-21T01:51:37.060Z,13.33
2016-05-21T01:52:37.109Z,13.22
2016-05-21T01:53:36.971Z,13.2
2016-05-21T01:54:37.161Z,13.19
2016-05-21T01:55:37.196Z,13.2
2016-05-21T01:56:37.527Z,13.08
2016-05-21T01:57:37.279Z,13.16
2016-05-21T01:58:37.141Z,13.18
2016-05-21T01:59:37.332Z,13.09
2016-05-21T02:00:37.209Z,13
2016-05-21T02:01:37.399Z,13.01
2016-05-21T02:02:37.432Z,13.01
2016-05-21T02:03:37.467Z,13.13
2016-05-21T02:04:37.345Z,13.04
2016-05-21T02:05:37.534Z,13.01
2016-05-21T02:06:37.412Z,13
2016-05-21T02:07:37.634Z,13.15
2016-05-21T02:08:37.636Z,13.08
2016-05-21T02:09:37.670Z,13.11
2016-05-21T02:10:37.720Z,13.12
2016-05-21T02:11:37.582Z,13.16
2016-05-21T02:12:37.773Z,13.16
2016-05-21T02:13:37.650Z,13.28
2016-05-21T02:14:37.840Z,13.25
2016-05-21T02:15:37.890Z,13.18
2016-05-21T02:16:37.908Z,13.18
2016-05-21T02:17:37.958Z,13.16
2016-05-21T02:18:37.975Z,13.18
2016-05-21T02:19:38.010Z,13.13
2016-05-21T02:20:38.044Z,13.16
2016-05-21T02:21:37.938Z,13.16
2016-05-21T02:22:37.955Z,13.12
2016-05-21T02:23:38.146Z,13.05
2016-05-21T02:24:37.883Z,13.01
2016-05-21T02:25:38.214Z,13.08
2016-05-21T02:26:38.263Z,13.08
2016-05-21T02:27:38.296Z,12.98
2016-05-21T02:28:38.160Z,13.03
2016-05-21T02:29:38.209Z,12.97
2016-05-21T02:30:38.383Z,13.01
2016-05-21T02:31:38.418Z,12.98
2016-05-21T02:32:38.451Z,12.95
2016-05-21T02:33:38.501Z,12.97
2016-05-21T02:34:38.518Z,12.94
2016-05-21T02:35:38.554Z,12.93
2016-05-21T02:36:38.430Z,13.03
2016-05-21T02:37:38.465Z,12.98
2016-05-21T02:38:38.671Z,12.9
2016-05-21T02:39:38.689Z,12.98
2016-05-21T02:40:38.739Z,13.05
2016-05-21T02:41:38.787Z,13.04
2016-05-21T02:42:38.478Z,13.05
2016-05-21T02:43:38.825Z,13.05
2016-05-21T02:44:38.874Z,13.01
2016-05-21T02:45:38.892Z,13.03
2016-05-21T02:46:38.941Z,13.01
2016-05-21T02:47:38.991Z,13
2016-05-21T02:48:39.010Z,13.05
2016-05-21T02:49:39.059Z,13.01
2016-05-21T02:50:39.062Z,13.05
2016-05-21T02:51:39.189Z,12.91
2016-05-21T02:52:39.708Z,12.95
2016-05-21T02:53:39.180Z,12.94
2016-05-21T02:54:39.088Z,13.01
2016-05-21T02:55:39.247Z,12.97
2016-05-21T02:56:39.563Z,12.97
2016-05-21T02:57:39.299Z,12.9
2016-05-21T02:58:39.333Z,12.73
2016-05-21T02:59:39.211Z,12.76
2016-05-21T03:00:39.418Z,12.76
2016-05-21T03:01:39.279Z,12.75
2016-05-21T03:02:39.312Z,12.78
2016-05-21T03:03:39.504Z,12.76
2016-05-21T03:04:39.537Z,12.7
2016-05-21T03:05:39.587Z,12.73
2016-05-21T03:06:39.464Z,12.78
2016-05-21T03:07:39.482Z,12.73
2016-05-21T03:08:39.689Z,12.73
2016-05-21T03:09:39.723Z,12.73
2016-05-21T03:10:39.740Z,12.61
2016-05-21T03:11:39.790Z,12.76
2016-05-21T03:12:39.809Z,12.55
2016-05-21T03:13:39.842Z,12.75
2016-05-21T03:14:39.876Z,12.75
2016-05-21T03:15:39.926Z,12.64
2016-05-21T03:16:39.944Z,12.61
2016-05-21T03:17:39.978Z,12.55
2016-05-21T03:18:40.012Z,12.58
2016-05-21T03:19:40.046Z,12.62
2016-05-21T03:20:39.925Z,12.58
2016-05-21T03:21:40.130Z,12.67
2016-05-21T03:22:40.148Z,12.62
2016-05-21T03:23:40.183Z,12.8
2016-05-21T03:24:40.216Z,12.76
2016-05-21T03:25:40.250Z,12.73
2016-05-21T03:26:40.299Z,12.75
2016-05-21T03:27:40.334Z,12.73
2016-05-21T03:28:40.368Z,12.73
2016-05-21T03:29:40.401Z,12.67
2016-05-21T03:30:40.419Z,12.55
2016-05-21T03:31:40.454Z,12.61
2016-05-21T03:32:40.346Z,12.58
2016-05-21T03:33:40.521Z,12.53
2016-05-21T03:34:40.555Z,12.47
2016-05-21T03:35:40.590Z,12.54
2016-05-21T03:36:40.639Z,12.64
2016-05-21T03:37:40.657Z,12.64
2016-05-21T03:38:40.707Z,12.57
2016-05-21T03:39:40.725Z,12.54
2016-05-21T03:40:40.759Z,12.5
2016-05-21T03:41:40.496Z,12.64
2016-05-21T03:42:40.826Z,12.42
2016-05-21T03:43:40.720Z,12.46
2016-05-21T03:44:40.911Z,12.54
2016-05-21T03:45:40.928Z,12.53
2016-05-21T03:46:40.962Z,12.6
2016-05-21T03:47:40.997Z,12.6
2016-05-21T03:48:41.031Z,12.64
2016-05-21T03:49:40.908Z,12.6
2016-05-21T03:50:41.098Z,12.61
2016-05-21T03:51:41.133Z,12.6
2016-05-21T03:52:41.166Z,12.58
2016-05-21T03:53:41.200Z,12.68
2016-05-21T03:54:41.234Z,12.62
2016-05-21T03:55:41.268Z,12.78
2016-05-21T03:56:41.177Z,12.73
2016-05-21T03:57:41.336Z,12.75
2016-05-21T03:58:41.370Z,12.76
2016-05-21T03:59:41.404Z,12.57
2016-05-21T04:00:41.438Z,12.73
2016-05-21T04:01:41.487Z,12.75
2016-05-21T04:02:41.505Z,12.61
2016-05-21T04:03:41.555Z,12.75
2016-05-21T04:04:41.574Z,12.73
2016-05-21T04:05:41.607Z,12.82
2016-05-21T04:06:41.657Z,12.83
2016-05-21T04:07:41.519Z,12.95
2016-05-21T04:08:41.396Z,12.91
2016-05-21T04:09:41.743Z,12.95
2016-05-21T04:10:41.621Z,12.97
2016-05-21T04:11:41.670Z,13
2016-05-21T04:12:41.845Z,13.18
2016-05-21T04:13:41.879Z,13.2
2016-05-21T04:14:41.913Z,13.2
2016-05-21T04:15:41.948Z,13.16
2016-05-21T04:16:41.981Z,13.3
2016-05-21T04:17:42.015Z,13.31
2016-05-21T04:18:42.064Z,13.28
2016-05-21T04:19:42.098Z,13.33
2016-05-21T04:20:42.117Z,13.47
2016-05-21T04:21:42.182Z,13.54
2016-05-21T04:22:42.200Z,13.49
2016-05-21T04:23:42.234Z,13.49
2016-05-21T04:24:42.268Z,13.6
2016-05-21T04:25:42.303Z,13.78
2016-05-21T04:26:42.491Z,14.03
2016-05-21T04:27:42.369Z,14.04
2016-05-21T04:28:42.419Z,14.25
2016-05-21T04:29:42.422Z,14.36
2016-05-21T04:30:42.456Z,14.36
2016-05-21T04:31:42.490Z,14.48
2016-05-21T04:32:42.524Z,14.51
2016-05-21T04:33:42.401Z,14.59
2016-05-21T04:34:42.591Z,14.58
2016-05-21T04:35:42.626Z,14.58
2016-05-21T04:36:42.518Z,14.6
2016-05-21T04:37:42.710Z,14.78
2016-05-21T04:38:42.759Z,14.78
2016-05-21T04:39:42.777Z,14.72
2016-05-21T04:40:42.812Z,15.15
2016-05-21T04:41:43.142Z,15.43
2016-05-21T04:42:42.723Z,15.43
2016-05-21T04:43:42.912Z,15.37
2016-05-21T04:44:42.947Z,15.39
2016-05-21T04:45:42.981Z,15.47
2016-05-21T04:46:43.015Z,15.37
2016-05-21T04:47:42.908Z,15.17
2016-05-21T04:48:43.083Z,15.03
2016-05-21T04:49:43.117Z,15.07
2016-05-21T04:50:43.167Z,14.99
2016-05-21T04:51:43.200Z,14.99
2016-05-21T04:52:43.234Z,14.86
2016-05-21T04:53:43.267Z,14.73
2016-05-21T04:54:43.302Z,14.69
2016-05-21T04:55:43.336Z,14.73
2016-05-21T04:56:43.386Z,14.85
2016-05-21T04:57:43.403Z,14.92
2016-05-21T04:58:43.437Z,14.89
2016-05-21T04:59:43.472Z,14.94
2016-05-21T05:00:43.521Z,15.02
2016-05-21T05:01:43.539Z,14.91
2016-05-21T05:02:43.588Z,14.86
2016-05-21T05:03:43.623Z,14.92
2016-05-21T05:04:43.657Z,14.82
2016-05-21T05:05:43.691Z,14.73
2016-05-21T05:06:43.724Z,14.81
2016-05-21T05:07:43.759Z,14.72
2016-05-21T05:08:43.792Z,14.86
2016-05-21T05:09:43.671Z,14.84
2016-05-21T05:10:43.860Z,14.88
2016-05-21T05:11:43.957Z,14.7
2016-05-21T05:12:43.944Z,14.65
2016-05-21T05:13:43.978Z,14.82
2016-05-21T05:14:44.012Z,14.82
2016-05-21T05:15:44.062Z,14.77
2016-05-21T05:16:44.096Z,14.58
2016-05-21T05:17:44.145Z,14.58
2016-05-21T05:18:44.164Z,14.53
2016-05-21T05:19:44.041Z,14.55
2016-05-21T05:20:44.231Z,14.54
2016-05-21T05:21:44.265Z,14.59
2016-05-21T05:22:44.299Z,14.58
2016-05-21T05:23:44.333Z,14.54
2016-05-21T05:24:44.367Z,14.66
2016-05-21T05:25:44.400Z,14.47
2016-05-21T05:26:44.669Z,14.62
2016-05-21T05:27:44.484Z,14.77
2016-05-21T05:28:44.518Z,14.73
2016-05-21T05:29:44.569Z,14.81
2016-05-21T05:30:44.586Z,15.04
2016-05-21T05:31:44.463Z,15.03
2016-05-21T05:32:44.654Z,15.39
2016-05-21T05:33:44.532Z,15.7
2016-05-21T05:34:44.753Z,15.72
2016-05-21T05:35:44.787Z,15.9
2016-05-21T05:36:44.822Z,15.62
2016-05-21T05:37:44.839Z,15.68
2016-05-21T05:38:44.717Z,15.72
2016-05-21T05:39:44.938Z,15.73
2016-05-21T05:40:44.957Z,15.58
2016-05-21T05:41:45.318Z,15.64
2016-05-21T05:42:45.040Z,15.43
2016-05-21T05:43:45.059Z,15.43
2016-05-21T05:44:45.093Z,15.44
2016-05-21T05:45:45.142Z,15.43
2016-05-21T05:46:45.020Z,15.18
2016-05-21T05:47:45.209Z,15.18
2016-05-21T05:48:45.244Z,15.19
2016-05-21T05:49:45.278Z,15.28
2016-05-21T05:50:45.328Z,15.24
2016-05-21T05:51:45.361Z,15.37
2016-05-21T05:52:45.395Z,15.4
2016-05-21T05:53:45.429Z,15.35
2016-05-21T05:54:45.463Z,15.18
2016-05-21T05:55:45.356Z,15.24
2016-05-21T05:56:45.266Z,15.1
2016-05-21T05:57:45.597Z,15.11
2016-05-21T05:58:45.614Z,15.19
2016-05-21T05:59:45.649Z,15.21
2016-05-21T06:00:45.682Z,15.31
2016-05-21T06:01:45.716Z,15.36
2016-05-21T06:02:45.750Z,15.39
2016-05-21T06:03:45.800Z,15.43
2016-05-21T06:04:45.834Z,15.47
2016-05-21T06:05:45.868Z,15.57
2016-05-21T06:06:45.918Z,15.55
2016-05-21T06:07:45.795Z,15.68
2016-05-21T06:08:45.813Z,15.73
2016-05-21T06:09:46.019Z,15.61
2016-05-21T06:10:46.054Z,15.55
2016-05-21T06:11:46.102Z,15.79
2016-05-21T06:12:45.965Z,15.7
2016-05-21T06:13:46.155Z,15.73
2016-05-21T06:14:46.204Z,15.86
2016-05-21T06:15:46.238Z,16.02
2016-05-21T06:16:46.116Z,16.15
2016-05-21T06:17:46.306Z,16.02
2016-05-21T06:18:46.340Z,15.91
2016-05-21T06:19:46.374Z,15.95
2016-05-21T06:20:46.251Z,15.94
2016-05-21T06:21:46.301Z,15.98
2016-05-21T06:22:46.507Z,15.88
2016-05-21T06:23:46.526Z,15.9
2016-05-21T06:24:46.559Z,16.09
2016-05-21T06:25:46.594Z,16.15
2016-05-21T06:26:47.065Z,16.16
2016-05-21T06:27:46.520Z,16.33
2016-05-21T06:28:46.711Z,16.41
2016-05-21T06:29:46.745Z,16.39
2016-05-21T06:30:46.794Z,16.57
2016-05-21T06:31:46.828Z,16.54
2016-05-21T06:32:46.877Z,16.72
2016-05-21T06:33:46.911Z,16.76
2016-05-21T06:34:46.930Z,16.72
2016-05-21T06:35:46.980Z,16.72
2016-05-21T06:36:47.014Z,16.86
2016-05-21T06:37:46.891Z,16.87
2016-05-21T06:38:47.082Z,16.61
2016-05-21T06:39:47.132Z,16.56
2016-05-21T06:40:47.166Z,16.54
2016-05-21T06:41:47.354Z,16.56
2016-05-21T06:42:47.265Z,16.53
2016-05-21T06:43:47.126Z,16.58
2016-05-21T06:44:47.301Z,16.51
2016-05-21T06:45:47.350Z,16.56
2016-05-21T06:46:47.384Z,16.6
2016-05-21T06:47:47.434Z,16.6
2016-05-21T06:48:47.468Z,16.58
2016-05-21T06:49:47.502Z,16.58
2016-05-21T06:50:47.536Z,16.61
2016-05-21T06:51:47.429Z,16.68
2016-05-21T06:52:47.603Z,16.66
2016-05-21T06:53:47.653Z,16.57
2016-05-21T06:54:47.687Z,16.68
2016-05-21T06:55:47.565Z,16.65
2016-05-21T06:56:47.911Z,16.74
2016-05-21T06:57:47.648Z,16.84
2016-05-21T06:58:47.839Z,17.11
2016-05-21T06:59:47.716Z,17.24
2016-05-21T07:00:47.906Z,17.3
2016-05-21T07:01:47.956Z,17.29
2016-05-21T07:02:47.989Z,17.24
2016-05-21T07:03:47.867Z,17.24
2016-05-21T07:04:48.074Z,17.34
2016-05-21T07:05:47.952Z,17.42
2016-05-21T07:06:48.141Z,17.48
2016-05-21T07:07:48.191Z,17.36
2016-05-21T07:08:48.225Z,17.44
2016-05-21T07:09:48.258Z,17.57
2016-05-21T07:10:48.151Z,17.72
2016-05-21T07:11:49.171Z,17.98
2016-05-21T07:12:48.391Z,18.1
2016-05-21T07:13:48.410Z,18.11
2016-05-21T07:14:48.444Z,18.35
2016-05-21T07:15:48.493Z,18.52
2016-05-21T07:16:48.371Z,18.62
2016-05-21T07:17:48.577Z,18.59
2016-05-21T07:18:48.596Z,18.6
2016-05-21T07:19:48.473Z,18.62
2016-05-21T07:20:48.523Z,18.53
2016-05-21T07:21:48.713Z,18.43
2016-05-21T07:22:48.762Z,18.37
2016-05-21T07:23:48.796Z,18.28
2016-05-21T07:24:48.830Z,18.25
2016-05-21T07:25:48.724Z,18.37
2016-05-21T07:26:49.211Z,18.5
2016-05-21T07:27:48.947Z,18.65
2016-05-21T07:28:48.998Z,18.83
2016-05-21T07:29:49.031Z,18.78
2016-05-21T07:30:49.081Z,18.95
2016-05-21T07:31:49.115Z,19.08
2016-05-21T07:32:49.149Z,19.19
2016-05-21T07:33:49.183Z,19.26
2016-05-21T07:34:49.216Z,19.4
2016-05-21T07:35:49.266Z,19.31
2016-05-21T07:36:49.316Z,19.4
2016-05-21T07:37:49.208Z,19.39
2016-05-21T07:38:49.399Z,19.34
2016-05-21T07:39:49.277Z,19.4
2016-05-21T07:40:49.467Z,19.48
2016-05-21T07:41:49.907Z,19.52
2016-05-21T07:42:49.551Z,19.73
2016-05-21T07:43:49.429Z,19.85
2016-05-21T07:44:49.634Z,20.14
2016-05-21T07:45:49.684Z,20.48
2016-05-21T07:46:49.702Z,21.24
2016-05-21T07:47:49.736Z,21.95
2016-05-21T07:48:49.785Z,22.22
2016-05-21T07:49:49.820Z,21.95
2016-05-21T07:50:49.869Z,21.62
2016-05-21T07:51:49.903Z,21.8
2016-05-21T07:52:49.952Z,21.82
2016-05-21T07:53:49.987Z,21.75
2016-05-21T07:54:49.879Z,21.72
2016-05-21T07:55:50.070Z,21.66
2016-05-21T07:56:50.276Z,21.37
2016-05-21T07:57:50.153Z,20.88
2016-05-21T07:58:50.187Z,20.55
2016-05-21T07:59:50.253Z,20.31
2016-05-21T08:00:50.287Z,20.03
2016-05-21T08:01:50.320Z,20.11
2016-05-21T08:02:50.370Z,20.11
2016-05-21T08:03:50.419Z,20.09
2016-05-21T08:04:50.453Z,19.89
2016-05-21T08:05:50.488Z,19.77
2016-05-21T08:06:50.522Z,19.69
2016-05-21T08:07:50.571Z,19.54
2016-05-21T08:08:50.621Z,19.39
2016-05-21T08:09:50.499Z,19.4
2016-05-21T08:10:50.547Z,19.26
2016-05-21T08:11:50.832Z,19.3
2016-05-21T08:12:50.616Z,19.4
2016-05-21T08:13:50.821Z,19.44
2016-05-21T08:14:50.856Z,19.51
2016-05-21T08:15:50.904Z,19.36
2016-05-21T08:16:50.939Z,19.3
2016-05-21T08:17:50.816Z,19.26
2016-05-21T08:18:51.023Z,19.37
2016-05-21T08:19:51.057Z,19.41
2016-05-21T08:20:51.090Z,19.39
2016-05-21T08:21:51.140Z,19.39
2016-05-21T08:22:51.034Z,19.4
2016-05-21T08:23:51.239Z,19.51
2016-05-21T08:24:51.257Z,19.48
2016-05-21T08:25:51.307Z,19.52
2016-05-21T08:26:51.575Z,19.45
2016-05-21T08:27:51.390Z,19.47
2016-05-21T08:28:51.425Z,19.34
2016-05-21T08:29:51.318Z,19.45
2016-05-21T08:30:51.539Z,19.52
2016-05-21T08:31:51.401Z,19.74
2016-05-21T08:32:51.435Z,20.06
2016-05-21T08:33:51.625Z,20.19
2016-05-21T08:34:51.691Z,20.24
2016-05-21T08:35:51.725Z,20.51
2016-05-21T08:36:51.759Z,20.85
2016-05-21T08:37:51.808Z,21.21
2016-05-21T08:38:51.842Z,21.3
2016-05-21T08:39:51.719Z,21.57
2016-05-21T08:40:51.910Z,21.57
2016-05-21T08:41:51.991Z,21.91
2016-05-21T08:42:51.837Z,22.02
2016-05-21T08:43:52.043Z,21.88
2016-05-21T08:44:51.936Z,21.62
2016-05-21T08:45:52.126Z,21.6
2016-05-21T08:46:52.176Z,21.69
2016-05-21T08:47:52.210Z,21.57
2016-05-21T08:48:52.244Z,21.51
2016-05-21T08:49:52.309Z,21.36
2016-05-21T08:50:52.187Z,21.52
2016-05-21T08:51:52.236Z,21.4
2016-05-21T08:52:52.270Z,21.22
2016-05-21T08:53:52.320Z,20.9
2016-05-21T08:54:52.510Z,20.67
2016-05-21T08:55:52.543Z,20.5
2016-05-21T08:56:53.265Z,20.8
2016-05-21T08:57:52.628Z,20.93
2016-05-21T08:58:52.677Z,21.03
2016-05-21T08:59:52.711Z,20.88
2016-05-21T09:00:52.761Z,20.69
2016-05-21T09:01:52.638Z,20.5
2016-05-21T09:02:52.845Z,20.5
2016-05-21T09:03:52.878Z,20.55
2016-05-21T09:04:52.786Z,20.34
2016-05-21T09:05:52.962Z,20.37
2016-05-21T09:06:52.855Z,20.13
2016-05-21T09:07:53.045Z,20.24
2016-05-21T09:08:53.095Z,20.28
2016-05-21T09:09:53.129Z,20.31
2016-05-21T09:10:53.022Z,20.36
2016-05-21T09:11:53.056Z,20.36
2016-05-21T09:12:53.105Z,20.39
2016-05-21T09:13:53.296Z,20.37
2016-05-21T09:14:53.345Z,20.36
2016-05-21T09:15:53.379Z,20.36
2016-05-21T09:16:53.429Z,20.69
2016-05-21T09:17:53.485Z,20.9
2016-05-21T09:18:53.540Z,20.87
2016-05-21T09:19:53.610Z,20.85
2016-05-21T09:20:53.525Z,21.03
2016-05-21T09:21:53.736Z,20.84
2016-05-21T09:22:53.776Z,20.84
2016-05-21T09:23:53.678Z,21
2016-05-21T09:24:53.876Z,20.95
2016-05-21T09:25:53.949Z,21
2016-05-21T09:26:54.084Z,21.09
2016-05-21T09:27:54.026Z,21.05
2016-05-21T09:28:53.922Z,21.11
2016-05-21T09:29:54.116Z,21.21
2016-05-21T09:30:54.167Z,21.48
2016-05-21T09:31:54.205Z,21.67
2016-05-21T09:32:54.099Z,21.61
2016-05-21T09:33:54.290Z,21.58
2016-05-21T09:34:54.170Z,22.06
2016-05-21T09:35:54.220Z,22.32
2016-05-21T09:36:54.411Z,22.43
2016-05-21T09:37:54.477Z,22.36
2016-05-21T09:38:54.528Z,22.25
2016-05-21T09:39:54.545Z,22.44
2016-05-21T09:40:54.595Z,22.91
2016-05-21T09:41:54.646Z,23.23
2016-05-21T09:42:54.524Z,23.81
2016-05-21T09:43:54.713Z,23.98
2016-05-21T09:44:54.762Z,23.84
2016-05-21T09:45:54.656Z,23.95
2016-05-21T09:46:54.862Z,23.77
2016-05-21T09:47:54.896Z,23.37
2016-05-21T09:48:54.618Z,23.17
2016-05-21T09:49:54.978Z,23.09
2016-05-21T09:50:55.029Z,23.54
2016-05-21T09:51:55.063Z,23.77
2016-05-21T09:52:55.112Z,24.01
2016-05-21T09:53:55.146Z,24.1
2016-05-21T09:54:55.196Z,23.65
2016-05-21T09:55:55.245Z,23.68
2016-05-21T09:56:55.294Z,23.43
2016-05-21T09:57:55.329Z,23.05
2016-05-21T09:58:55.363Z,22.7
2016-05-21T09:59:55.413Z,23.08
2016-05-21T10:00:55.462Z,23.71
2016-05-21T10:01:55.355Z,23.63
2016-05-21T10:02:55.405Z,23.37
2016-05-21T10:03:55.596Z,23.63
2016-05-21T10:04:55.644Z,23.81
2016-05-21T10:05:55.679Z,24.36
2016-05-21T10:06:55.588Z,24.7
2016-05-21T10:07:55.793Z,24.93
2016-05-21T10:08:55.827Z,24.76
2016-05-21T10:09:55.721Z,24.6
2016-05-21T10:10:55.770Z,24.5
2016-05-21T10:11:55.835Z,24.63
2016-05-21T10:12:56.010Z,24.47
2016-05-21T10:13:56.043Z,24.65
2016-05-21T10:14:55.937Z,24.66
2016-05-21T10:15:56.158Z,24.7
2016-05-21T10:16:56.193Z,24.76
2016-05-21T10:17:56.242Z,24.77
2016-05-21T10:18:56.291Z,25.08
2016-05-21T10:19:56.341Z,24.84
2016-05-21T10:20:56.220Z,25.17
2016-05-21T10:21:56.425Z,25.51
2016-05-21T10:22:56.459Z,25.4
2016-05-21T10:23:56.525Z,25.4
2016-05-21T10:24:56.402Z,25.54
2016-05-21T10:25:56.607Z,25.48
2016-05-21T10:26:56.672Z,24.88
2016-05-21T10:27:56.706Z,24.68
2016-05-21T10:28:56.756Z,24.78
2016-05-21T10:29:56.649Z,24.51
2016-05-21T10:30:56.871Z,23.63
2016-05-21T10:31:56.905Z,23.47
2016-05-21T10:32:56.939Z,23.81
2016-05-21T10:33:56.988Z,24.28
2016-05-21T10:34:57.038Z,24.51
2016-05-21T10:35:57.088Z,24.78
2016-05-21T10:36:57.138Z,24.61
2016-05-21T10:37:57.171Z,24.1
2016-05-21T10:38:57.221Z,23.54
2016-05-21T10:39:57.271Z,24.13
2016-05-21T10:40:57.320Z,24.73
2016-05-21T10:41:57.868Z,25.53
2016-05-21T10:42:57.403Z,25.87
2016-05-21T10:43:57.453Z,25.55
2016-05-21T10:44:57.502Z,25.46
2016-05-21T10:45:57.567Z,25.18
2016-05-21T10:46:57.601Z,25.29
2016-05-21T10:47:57.651Z,25.04
2016-05-21T10:48:57.701Z,24.24
2016-05-21T10:49:57.765Z,23.84
2016-05-21T10:50:57.784Z,24.14
2016-05-21T10:51:57.850Z,24.28
2016-05-21T10:52:57.884Z,24.69
2016-05-21T10:53:57.933Z,25.4
2016-05-21T10:54:57.998Z,25.29
2016-05-21T10:55:57.876Z,25.07
2016-05-21T10:56:57.785Z,24.69
2016-05-21T10:57:58.115Z,24.65
2016-05-21T10:58:58.165Z,23.86
2016-05-21T10:59:58.230Z,23.78
2016-05-21T11:00:58.264Z,23.46
2016-05-21T11:01:58.297Z,23.2
2016-05-21T11:02:58.348Z,23.54
2016-05-21T11:03:58.397Z,23.55
2016-05-21T11:04:58.446Z,23.54
2016-05-21T11:05:58.496Z,23.39
2016-05-21T11:06:58.546Z,23.15
2016-05-21T11:07:58.580Z,23.39
2016-05-21T11:08:58.629Z,23.86
2016-05-21T11:09:58.679Z,24.66
2016-05-21T11:10:58.729Z,24.6
2016-05-21T11:11:59.247Z,24.51
2016-05-21T11:12:58.812Z,24.16
2016-05-21T11:13:58.862Z,24.1
2016-05-21T11:14:58.912Z,24.01
2016-05-21T11:15:58.945Z,23.61
2016-05-21T11:16:58.995Z,23.65
2016-05-21T11:17:59.154Z,23.5
2016-05-21T11:18:58.937Z,23.81
2016-05-21T11:19:59.128Z,24.66
2016-05-21T11:20:59.178Z,25.16
2016-05-21T11:21:59.070Z,24.95
2016-05-21T11:22:59.120Z,24.76
2016-05-21T11:23:59.342Z,24.53
2016-05-21T11:24:59.359Z,24.69
2016-05-21T11:25:59.253Z,24.63
2016-05-21T11:26:59.474Z,24.3
2016-05-21T11:27:59.353Z,24.11
2016-05-21T11:28:59.542Z,23.62
2016-05-21T11:29:59.608Z,23.24
2016-05-21T11:30:59.625Z,23.13
2016-05-21T11:31:59.707Z,23.24
2016-05-21T11:32:59.725Z,23.66
2016-05-21T11:33:59.775Z,23.65
2016-05-21T11:34:59.668Z,23.56
2016-05-21T11:35:59.874Z,23.65
2016-05-21T11:36:59.908Z,23.99
2016-05-21T11:37:59.974Z,24.39
2016-05-21T11:39:00.007Z,25.03
2016-05-21T11:40:00.057Z,25.07
2016-05-21T11:40:59.777Z,25.03
2016-05-21T11:42:00.140Z,25.44
2016-05-21T11:43:00.032Z,25.47
2016-05-21T11:44:00.224Z,25.8
2016-05-21T11:45:00.117Z,26.22
2016-05-21T11:46:00.323Z,26.18
2016-05-21T11:47:00.373Z,25.77
2016-05-21T11:48:00.422Z,25.41
2016-05-21T11:49:00.471Z,24.95
2016-05-21T11:50:00.506Z,24.54
2016-05-21T11:51:00.554Z,24.29
2016-05-21T11:52:00.620Z,24.01
2016-05-21T11:53:00.654Z,23.76
2016-05-21T11:54:00.703Z,23.76
2016-05-21T11:55:00.737Z,23.63
2016-05-21T11:56:00.787Z,23.61
2016-05-21T11:57:00.775Z,23.31
2016-05-21T11:58:00.886Z,23.17
2016-05-21T11:59:00.936Z,22.96
2016-05-21T12:00:00.813Z,23.17
2016-05-21T12:01:00.863Z,23.56
2016-05-21T12:02:01.052Z,23.98
2016-05-21T12:03:00.947Z,24.24
2016-05-21T12:04:01.169Z,24.11
2016-05-21T12:05:01.202Z,24.3
2016-05-21T12:06:01.251Z,24.57
2016-05-21T12:07:01.129Z,24.74
2016-05-21T12:08:01.179Z,25.1
2016-05-21T12:09:01.228Z,25.1
2016-05-21T12:10:01.419Z,24.6
2016-05-21T12:11:01.483Z,24.39
2016-05-21T12:12:01.424Z,24.7
2016-05-21T12:13:01.567Z,24.65
2016-05-21T12:14:01.601Z,24.61
2016-05-21T12:15:01.651Z,24.78
2016-05-21T12:16:01.701Z,24.86
2016-05-21T12:17:01.593Z,24.88
2016-05-21T12:18:01.643Z,24.78
2016-05-21T12:19:01.834Z,25.07
2016-05-21T12:20:01.882Z,24.89
2016-05-21T12:21:01.620Z,25.01
2016-05-21T12:22:01.826Z,25.58
2016-05-21T12:23:02.031Z,25.44
2016-05-21T12:24:02.065Z,25.06
2016-05-21T12:25:02.115Z,25.13
2016-05-21T12:26:02.164Z,24.65
2016-05-21T12:27:01.901Z,24.53
2016-05-21T12:28:02.248Z,24.68
2016-05-21T12:29:02.141Z,24.98
2016-05-21T12:30:02.191Z,25.13
2016-05-21T12:31:02.397Z,25.58
2016-05-21T12:32:02.290Z,26.06
2016-05-21T12:33:02.325Z,26.45
2016-05-21T12:34:02.545Z,26.45
2016-05-21T12:35:02.595Z,26.43
2016-05-21T12:36:02.644Z,26.63
2016-05-21T12:37:02.678Z,26.41
2016-05-21T12:38:02.727Z,26.62
2016-05-21T12:39:02.778Z,26.63
2016-05-21T12:40:02.827Z,26.52
2016-05-21T12:41:02.876Z,26.28
2016-05-21T12:42:02.942Z,26.03
2016-05-21T12:43:02.960Z,25.81
2016-05-21T12:44:03.010Z,25.51
2016-05-21T12:45:03.075Z,25.29
2016-05-21T12:46:03.124Z,25.22
2016-05-21T12:47:03.159Z,25.18
2016-05-21T12:48:03.207Z,24.57
2016-05-21T12:49:03.273Z,24.51
2016-05-21T12:50:03.307Z,24.53
2016-05-21T12:51:03.357Z,24.57
2016-05-21T12:52:03.407Z,24.76
2016-05-21T12:53:03.456Z,25.28
2016-05-21T12:54:03.490Z,25.72
2016-05-21T12:55:03.398Z,26.06
2016-05-21T12:56:03.589Z,26.06
2016-05-21T12:57:03.592Z,25.91